sensor_id;sensor_type;location;lat;lon;timestamp;temperature;humidity
18163;DHT22;9206;50.994;4.538;2022-07-06T03:17:08;11.30;99.90
18163;DHT22;9206;50.994;4.538;2022-07-06T03:27:52;11.10;99.90
18163;DHT22;9206;50.994;4.538;2022-07-06T03:31:23;11.10;99.90
18163;DHT22;9206;50.994;4.538;2022-07-06T03:34:10;11.10;99.90
18163;DHT22;9206;50.994;4.538;2022-07-06T03:37:31;11.20;99.90
18163;DHT22;9206;50.994;4.538;2022-07-06T03:40:27;11.20;99.90
18163;DHT22;9206;50.994;4.538;2022-07-06T03:43:37;11.20;99.90
18163;DHT22;9206;50.994;4.538;2022-07-06T03:53:13;11.10;99.90
18163;DHT22;9206;50.994;4.538;2022-07-06T04:10:20;11.40;99.90
18163;DHT22;9206;50.994;4.538;2022-07-06T04:16:31;11.60;99.90
18163;DHT22;9206;50.994;4.538;2022-07-06T04:23:25;11.90;99.90
18163;DHT22;9206;50.994;4.538;2022-07-06T04:29:13;12.10;99.90
18163;DHT22;9206;50.994;4.538;2022-07-06T04:32:24;12.30;99.90
18163;DHT22;9206;50.994;4.538;2022-07-06T04:35:39;12.40;99.90
18163;DHT22;9206;50.994;4.538;2022-07-06T04:38:42;12.50;99.90
18163;DHT22;9206;50.994;4.538;2022-07-06T04:41:56;12.60;99.90
18163;DHT22;9206;50.994;4.538;2022-07-06T04:44:38;12.60;99.90
18163;DHT22;9206;50.994;4.538;2022-07-06T04:47:11;12.60;99.90
18163;DHT22;9206;50.994;4.538;2022-07-06T04:49:53;12.70;99.90
18163;DHT22;9206;50.994;4.538;2022-07-06T04:52:20;12.70;99.90
18163;DHT22;9206;50.994;4.538;2022-07-06T04:54:47;12.80;99.90
18163;DHT22;9206;50.994;4.538;2022-07-06T04:57:15;12.90;99.90
18163;DHT22;9206;50.994;4.538;2022-07-06T04:59:46;12.90;99.90
18163;DHT22;9206;50.994;4.538;2022-07-06T05:02:13;13.00;99.90
18163;DHT22;9206;50.994;4.538;2022-07-06T05:04:41;13.10;99.90
18163;DHT22;9206;50.994;4.538;2022-07-06T05:07:08;13.20;99.90
18163;DHT22;9206;50.994;4.538;2022-07-06T05:09:35;13.30;99.90
18163;DHT22;9206;50.994;4.538;2022-07-06T05:12:02;13.30;99.90
18163;DHT22;9206;50.994;4.538;2022-07-06T05:14:34;13.30;99.90
18163;DHT22;9206;50.994;4.538;2022-07-06T05:17:05;13.40;99.90
18163;DHT22;9206;50.994;4.538;2022-07-06T05:19:33;13.40;99.90
18163;DHT22;9206;50.994;4.538;2022-07-06T05:22:01;13.50;99.90
18163;DHT22;9206;50.994;4.538;2022-07-06T05:24:28;13.50;99.90
18163;DHT22;9206;50.994;4.538;2022-07-06T05:26:55;13.60;99.90
18163;DHT22;9206;50.994;4.538;2022-07-06T05:29:22;13.70;99.90
18163;DHT22;9206;50.994;4.538;2022-07-06T05:31:50;13.80;99.90
18163;DHT22;9206;50.994;4.538;2022-07-06T05:34:19;13.90;99.90
18163;DHT22;9206;50.994;4.538;2022-07-06T05:36:46;14.00;99.90
18163;DHT22;9206;50.994;4.538;2022-07-06T05:39:14;14.10;99.90
18163;DHT22;9206;50.994;4.538;2022-07-06T05:41:45;14.10;99.90
18163;DHT22;9206;50.994;4.538;2022-07-06T05:44:13;14.30;99.90
18163;DHT22;9206;50.994;4.538;2022-07-06T05:46:41;14.40;99.90
18163;DHT22;9206;50.994;4.538;2022-07-06T05:49:07;14.50;99.90
18163;DHT22;9206;50.994;4.538;2022-07-06T05:52:02;14.70;99.90
18163;DHT22;9206;50.994;4.538;2022-07-06T05:54:29;14.90;99.90
18163;DHT22;9206;50.994;4.538;2022-07-06T05:56:57;15.10;99.90
18163;DHT22;9206;50.994;4.538;2022-07-06T05:59:23;15.30;99.90
18163;DHT22;9206;50.994;4.538;2022-07-06T06:01:50;15.60;99.90
18163;DHT22;9206;50.994;4.538;2022-07-06T06:04:17;15.90;99.90
18163;DHT22;9206;50.994;4.538;2022-07-06T06:06:44;16.30;99.90
18163;DHT22;9206;50.994;4.538;2022-07-06T06:09:13;16.70;99.90
18163;DHT22;9206;50.994;4.538;2022-07-06T06:11:40;17.50;99.90
18163;DHT22;9206;50.994;4.538;2022-07-06T06:14:07;18.40;99.90
18163;DHT22;9206;50.994;4.538;2022-07-06T06:16:35;19.30;99.90
18163;DHT22;9206;50.994;4.538;2022-07-06T06:19:03;20.20;99.90
18163;DHT22;9206;50.994;4.538;2022-07-06T06:21:30;20.80;99.90
18163;DHT22;9206;50.994;4.538;2022-07-06T06:23:57;21.40;99.90
18163;DHT22;9206;50.994;4.538;2022-07-06T06:26:27;22.00;99.90
18163;DHT22;9206;50.994;4.538;2022-07-06T06:28:55;22.40;99.90
18163;DHT22;9206;50.994;4.538;2022-07-06T06:31:22;22.90;99.90
18163;DHT22;9206;50.994;4.538;2022-07-06T06:33:50;23.30;99.90
18163;DHT22;9206;50.994;4.538;2022-07-06T06:36:18;23.20;99.90
18163;DHT22;9206;50.994;4.538;2022-07-06T06:38:45;23.00;99.90
18163;DHT22;9206;50.994;4.538;2022-07-06T06:41:13;22.50;99.90
18163;DHT22;9206;50.994;4.538;2022-07-06T06:43:42;22.00;99.90
18163;DHT22;9206;50.994;4.538;2022-07-06T06:46:09;21.60;99.90
18163;DHT22;9206;50.994;4.538;2022-07-06T06:48:37;21.70;99.90
18163;DHT22;9206;50.994;4.538;2022-07-06T06:51:04;22.00;99.90
18163;DHT22;9206;50.994;4.538;2022-07-06T06:53:32;22.40;99.90
18163;DHT22;9206;50.994;4.538;2022-07-06T06:56:00;22.90;99.90
18163;DHT22;9206;50.994;4.538;2022-07-06T06:58:27;23.30;99.90
18163;DHT22;9206;50.994;4.538;2022-07-06T07:00:55;23.80;99.90
18163;DHT22;9206;50.994;4.538;2022-07-06T07:03:22;24.30;99.90
18163;DHT22;9206;50.994;4.538;2022-07-06T07:05:49;24.80;99.90
18163;DHT22;9206;50.994;4.538;2022-07-06T07:08:16;25.10;99.90
18163;DHT22;9206;50.994;4.538;2022-07-06T07:10:44;25.40;99.90
18163;DHT22;9206;50.994;4.538;2022-07-06T07:13:13;25.60;99.90
18163;DHT22;9206;50.994;4.538;2022-07-06T07:15:40;25.60;99.90
18163;DHT22;9206;50.994;4.538;2022-07-06T07:18:10;25.50;99.90
18163;DHT22;9206;50.994;4.538;2022-07-06T07:20:37;25.60;99.90
18163;DHT22;9206;50.994;4.538;2022-07-06T07:23:04;25.80;99.90
18163;DHT22;9206;50.994;4.538;2022-07-06T07:25:32;26.10;99.90
18163;DHT22;9206;50.994;4.538;2022-07-06T07:27:59;26.50;99.90
18163;DHT22;9206;50.994;4.538;2022-07-06T07:30:27;26.80;99.90
18163;DHT22;9206;50.994;4.538;2022-07-06T07:32:54;27.10;99.90
18163;DHT22;9206;50.994;4.538;2022-07-06T07:35:23;27.50;99.90
18163;DHT22;9206;50.994;4.538;2022-07-06T07:37:50;27.70;99.90
18163;DHT22;9206;50.994;4.538;2022-07-06T07:40:17;27.80;99.90
18163;DHT22;9206;50.994;4.538;2022-07-06T07:42:45;28.20;99.90
18163;DHT22;9206;50.994;4.538;2022-07-06T07:45:12;28.30;99.90
18163;DHT22;9206;50.994;4.538;2022-07-06T07:47:40;28.50;99.90
18163;DHT22;9206;50.994;4.538;2022-07-06T07:50:08;28.30;99.90
18163;DHT22;9206;50.994;4.538;2022-07-06T07:52:36;28.50;99.90
18163;DHT22;9206;50.994;4.538;2022-07-06T07:55:04;28.20;99.90
18163;DHT22;9206;50.994;4.538;2022-07-06T07:57:31;28.30;99.90
18163;DHT22;9206;50.994;4.538;2022-07-06T07:59:58;28.50;99.90
18163;DHT22;9206;50.994;4.538;2022-07-06T08:02:26;28.40;99.90
18163;DHT22;9206;50.994;4.538;2022-07-06T08:04:53;28.60;99.90
18163;DHT22;9206;50.994;4.538;2022-07-06T08:07:22;29.00;99.90
18163;DHT22;9206;50.994;4.538;2022-07-06T08:09:50;29.40;99.90
18163;DHT22;9206;50.994;4.538;2022-07-06T08:12:21;29.80;99.90
18163;DHT22;9206;50.994;4.538;2022-07-06T08:14:48;29.80;99.90
18163;DHT22;9206;50.994;4.538;2022-07-06T08:17:16;29.30;99.90
18163;DHT22;9206;50.994;4.538;2022-07-06T08:19:43;29.00;99.90
18163;DHT22;9206;50.994;4.538;2022-07-06T08:22:10;28.60;99.90
18163;DHT22;9206;50.994;4.538;2022-07-06T08:24:40;28.90;99.90
18163;DHT22;9206;50.994;4.538;2022-07-06T08:27:15;28.90;99.90
18163;DHT22;9206;50.994;4.538;2022-07-06T08:29:48;28.90;99.90
18163;DHT22;9206;50.994;4.538;2022-07-06T08:32:19;28.90;99.90
18163;DHT22;9206;50.994;4.538;2022-07-06T08:34:46;28.80;99.90
18163;DHT22;9206;50.994;4.538;2022-07-06T08:37:15;29.40;99.90
18163;DHT22;9206;50.994;4.538;2022-07-06T08:39:42;29.50;99.90
18163;DHT22;9206;50.994;4.538;2022-07-06T08:42:09;29.80;99.90
18163;DHT22;9206;50.994;4.538;2022-07-06T08:44:38;30.10;99.90
18163;DHT22;9206;50.994;4.538;2022-07-06T08:47:06;29.90;99.90
18163;DHT22;9206;50.994;4.538;2022-07-06T08:49:34;30.00;99.90
18163;DHT22;9206;50.994;4.538;2022-07-06T08:52:04;30.00;99.90
18163;DHT22;9206;50.994;4.538;2022-07-06T08:54:32;29.80;99.90
18163;DHT22;9206;50.994;4.538;2022-07-06T08:57:02;29.30;99.90
18163;DHT22;9206;50.994;4.538;2022-07-06T08:59:30;28.70;99.90
18163;DHT22;9206;50.994;4.538;2022-07-06T09:02:03;28.30;99.90
18163;DHT22;9206;50.994;4.538;2022-07-06T09:04:33;28.00;99.90
18163;DHT22;9206;50.994;4.538;2022-07-06T09:07:02;27.50;99.90
18163;DHT22;9206;50.994;4.538;2022-07-06T09:09:33;27.00;99.90
18163;DHT22;9206;50.994;4.538;2022-07-06T09:12:11;26.80;99.90
18163;DHT22;9206;50.994;4.538;2022-07-06T09:14:42;27.00;99.90
18163;DHT22;9206;50.994;4.538;2022-07-06T09:17:12;26.80;99.90
18163;DHT22;9206;50.994;4.538;2022-07-06T09:19:40;27.20;99.90
18163;DHT22;9206;50.994;4.538;2022-07-06T09:22:08;27.40;99.90
18163;DHT22;9206;50.994;4.538;2022-07-06T09:24:41;27.20;99.90
18163;DHT22;9206;50.994;4.538;2022-07-06T09:27:16;26.80;99.90
18163;DHT22;9206;50.994;4.538;2022-07-06T09:29:45;26.40;99.90
18163;DHT22;9206;50.994;4.538;2022-07-06T09:32:19;26.60;99.90
18163;DHT22;9206;50.994;4.538;2022-07-06T09:34:47;27.30;99.90
18163;DHT22;9206;50.994;4.538;2022-07-06T09:37:14;27.80;99.90
18163;DHT22;9206;50.994;4.538;2022-07-06T09:39:43;28.50;99.90
18163;DHT22;9206;50.994;4.538;2022-07-06T09:42:10;29.00;99.90
18163;DHT22;9206;50.994;4.538;2022-07-06T09:44:39;29.30;99.90
18163;DHT22;9206;50.994;4.538;2022-07-06T09:47:10;28.80;99.90
18163;DHT22;9206;50.994;4.538;2022-07-06T09:49:40;28.10;99.90
18163;DHT22;9206;50.994;4.538;2022-07-06T09:52:12;27.50;99.90
18163;DHT22;9206;50.994;4.538;2022-07-06T09:54:40;27.00;99.90
18163;DHT22;9206;50.994;4.538;2022-07-06T09:57:07;26.20;99.90
18163;DHT22;9206;50.994;4.538;2022-07-06T09:59:35;25.90;99.90
18163;DHT22;9206;50.994;4.538;2022-07-06T10:02:04;25.90;99.90
18163;DHT22;9206;50.994;4.538;2022-07-06T10:04:32;26.00;99.90
18163;DHT22;9206;50.994;4.538;2022-07-06T10:07:01;26.50;99.90
18163;DHT22;9206;50.994;4.538;2022-07-06T10:09:29;27.10;99.90
18163;DHT22;9206;50.994;4.538;2022-07-06T10:11:57;27.80;99.90
18163;DHT22;9206;50.994;4.538;2022-07-06T10:14:26;27.90;99.90
18163;DHT22;9206;50.994;4.538;2022-07-06T10:16:55;27.80;99.90
18163;DHT22;9206;50.994;4.538;2022-07-06T10:19:41;28.30;99.90
18163;DHT22;9206;50.994;4.538;2022-07-06T10:22:13;28.50;99.90
18163;DHT22;9206;50.994;4.538;2022-07-06T10:24:41;28.70;99.90
18163;DHT22;9206;50.994;4.538;2022-07-06T10:27:10;28.60;99.90
18163;DHT22;9206;50.994;4.538;2022-07-06T10:29:37;28.40;99.90
18163;DHT22;9206;50.994;4.538;2022-07-06T10:32:05;28.00;99.90
18163;DHT22;9206;50.994;4.538;2022-07-06T10:34:33;27.80;99.90
18163;DHT22;9206;50.994;4.538;2022-07-06T10:37:02;27.50;99.90
18163;DHT22;9206;50.994;4.538;2022-07-06T10:39:35;27.10;99.90
18163;DHT22;9206;50.994;4.538;2022-07-06T10:42:43;26.60;99.90
18163;DHT22;9206;50.994;4.538;2022-07-06T10:45:12;26.10;99.90
18163;DHT22;9206;50.994;4.538;2022-07-06T10:47:40;26.20;99.90
18163;DHT22;9206;50.994;4.538;2022-07-06T10:50:08;26.40;99.90
18163;DHT22;9206;50.994;4.538;2022-07-06T10:52:51;26.40;99.90
18163;DHT22;9206;50.994;4.538;2022-07-06T10:55:30;26.30;99.90
18163;DHT22;9206;50.994;4.538;2022-07-06T10:57:58;26.50;99.90
18163;DHT22;9206;50.994;4.538;2022-07-06T11:00:26;26.70;99.90
18163;DHT22;9206;50.994;4.538;2022-07-06T11:02:56;26.80;99.90
18163;DHT22;9206;50.994;4.538;2022-07-06T11:05:41;26.90;99.90
18163;DHT22;9206;50.994;4.538;2022-07-06T11:08:09;26.80;99.90
18163;DHT22;9206;50.994;4.538;2022-07-06T11:10:48;27.20;99.90
18163;DHT22;9206;50.994;4.538;2022-07-06T11:13:25;27.40;99.90
18163;DHT22;9206;50.994;4.538;2022-07-06T11:16:00;27.50;99.90
18163;DHT22;9206;50.994;4.538;2022-07-06T11:18:38;28.10;99.90
18163;DHT22;9206;50.994;4.538;2022-07-06T11:21:17;28.40;99.90
18163;DHT22;9206;50.994;4.538;2022-07-06T11:23:46;28.70;99.90
18163;DHT22;9206;50.994;4.538;2022-07-06T11:26:17;29.20;99.90
18163;DHT22;9206;50.994;4.538;2022-07-06T11:28:46;29.60;99.90
18163;DHT22;9206;50.994;4.538;2022-07-06T11:31:15;29.80;99.90
18163;DHT22;9206;50.994;4.538;2022-07-06T11:33:47;29.70;99.90
18163;DHT22;9206;50.994;4.538;2022-07-06T11:36:16;29.40;99.90
18163;DHT22;9206;50.994;4.538;2022-07-06T11:38:45;29.20;99.90
18163;DHT22;9206;50.994;4.538;2022-07-06T11:41:12;29.00;99.90
18163;DHT22;9206;50.994;4.538;2022-07-06T11:46:40;28.10;99.90
18163;DHT22;9206;50.994;4.538;2022-07-06T11:49:08;27.70;99.90
18163;DHT22;9206;50.994;4.538;2022-07-06T11:51:36;27.50;99.90
18163;DHT22;9206;50.994;4.538;2022-07-06T11:54:08;27.30;99.90
18163;DHT22;9206;50.994;4.538;2022-07-06T11:56:36;27.30;99.90
18163;DHT22;9206;50.994;4.538;2022-07-06T11:59:03;27.40;99.90
18163;DHT22;9206;50.994;4.538;2022-07-06T12:01:31;27.50;99.90
18163;DHT22;9206;50.994;4.538;2022-07-06T12:04:00;27.50;99.90
18163;DHT22;9206;50.994;4.538;2022-07-06T12:06:30;27.60;99.90
18163;DHT22;9206;50.994;4.538;2022-07-06T12:08:59;27.80;99.90
18163;DHT22;9206;50.994;4.538;2022-07-06T12:11:30;27.80;99.90
18163;DHT22;9206;50.994;4.538;2022-07-06T12:14:00;27.90;99.90
18163;DHT22;9206;50.994;4.538;2022-07-06T12:16:31;28.00;99.90
18163;DHT22;9206;50.994;4.538;2022-07-06T12:19:02;28.10;99.90
18163;DHT22;9206;50.994;4.538;2022-07-06T12:21:31;28.30;99.90
18163;DHT22;9206;50.994;4.538;2022-07-06T12:23:59;28.70;99.90
18163;DHT22;9206;50.994;4.538;2022-07-06T12:26:28;28.50;99.90
18163;DHT22;9206;50.994;4.538;2022-07-06T12:29:03;28.60;99.90
18163;DHT22;9206;50.994;4.538;2022-07-06T12:31:35;28.70;99.90
18163;DHT22;9206;50.994;4.538;2022-07-06T12:34:04;28.80;99.90
18163;DHT22;9206;50.994;4.538;2022-07-06T12:36:43;28.80;99.90
18163;DHT22;9206;50.994;4.538;2022-07-06T12:39:16;28.50;99.90
18163;DHT22;9206;50.994;4.538;2022-07-06T12:42:02;28.20;99.90
18163;DHT22;9206;50.994;4.538;2022-07-06T12:44:31;27.60;99.90
18163;DHT22;9206;50.994;4.538;2022-07-06T12:47:08;28.00;99.90
18163;DHT22;9206;50.994;4.538;2022-07-06T12:49:48;28.50;99.90
18163;DHT22;9206;50.994;4.538;2022-07-06T12:52:16;28.80;99.90
18163;DHT22;9206;50.994;4.538;2022-07-06T13:01:15;28.50;99.90
18163;DHT22;9206;50.994;4.538;2022-07-06T13:03:42;28.20;99.90
18163;DHT22;9206;50.994;4.538;2022-07-06T13:06:29;28.00;99.90
18163;DHT22;9206;50.994;4.538;2022-07-06T13:08:56;28.40;99.90
18163;DHT22;9206;50.994;4.538;2022-07-06T13:11:38;28.50;99.90
18163;DHT22;9206;50.994;4.538;2022-07-06T13:14:15;28.20;99.90
18163;DHT22;9206;50.994;4.538;2022-07-06T13:16:44;27.50;99.90
18163;DHT22;9206;50.994;4.538;2022-07-06T13:19:14;27.20;99.90
18163;DHT22;9206;50.994;4.538;2022-07-06T13:21:42;27.10;99.90
18163;DHT22;9206;50.994;4.538;2022-07-06T13:24:11;27.00;99.90
18163;DHT22;9206;50.994;4.538;2022-07-06T13:26:39;26.90;99.90
18163;DHT22;9206;50.994;4.538;2022-07-06T13:29:06;27.30;99.90
18163;DHT22;9206;50.994;4.538;2022-07-06T13:35:08;27.30;99.90
18163;DHT22;9206;50.994;4.538;2022-07-06T13:37:38;27.30;99.90
18163;DHT22;9206;50.994;4.538;2022-07-06T13:40:06;27.50;99.90
18163;DHT22;9206;50.994;4.538;2022-07-06T13:42:42;27.60;99.90
18163;DHT22;9206;50.994;4.538;2022-07-06T13:45:24;27.40;99.90
18163;DHT22;9206;50.994;4.538;2022-07-06T13:47:52;27.40;99.90
18163;DHT22;9206;50.994;4.538;2022-07-06T13:50:19;27.20;99.90
18163;DHT22;9206;50.994;4.538;2022-07-06T13:53:10;27.20;99.90
18163;DHT22;9206;50.994;4.538;2022-07-06T13:55:39;27.20;99.90
18163;DHT22;9206;50.994;4.538;2022-07-06T13:58:10;27.30;99.90
18163;DHT22;9206;50.994;4.538;2022-07-06T14:00:47;27.40;99.90
18163;DHT22;9206;50.994;4.538;2022-07-06T14:03:24;27.40;99.90
18163;DHT22;9206;50.994;4.538;2022-07-06T14:07:01;27.20;99.90
18163;DHT22;9206;50.994;4.538;2022-07-06T14:09:39;27.10;99.90
18163;DHT22;9206;50.994;4.538;2022-07-06T14:16:14;27.40;99.90
18163;DHT22;9206;50.994;4.538;2022-07-06T14:18:48;27.60;99.90
18163;DHT22;9206;50.994;4.538;2022-07-06T14:21:38;27.60;99.90
18163;DHT22;9206;50.994;4.538;2022-07-06T14:24:20;27.60;99.90
18163;DHT22;9206;50.994;4.538;2022-07-06T14:30:51;27.80;99.90
18163;DHT22;9206;50.994;4.538;2022-07-06T14:33:50;27.80;99.90
18163;DHT22;9206;50.994;4.538;2022-07-06T14:36:34;28.10;99.90
18163;DHT22;9206;50.994;4.538;2022-07-06T14:39:21;28.00;99.90
18163;DHT22;9206;50.994;4.538;2022-07-06T14:42:04;27.60;99.90
18163;DHT22;9206;50.994;4.538;2022-07-06T14:44:31;27.80;99.90
18163;DHT22;9206;50.994;4.538;2022-07-06T14:47:17;28.20;99.90
18163;DHT22;9206;50.994;4.538;2022-07-06T14:50:40;28.30;99.90
18163;DHT22;9206;50.994;4.538;2022-07-06T14:53:12;28.50;99.90
18163;DHT22;9206;50.994;4.538;2022-07-06T14:55:42;28.80;99.90
18163;DHT22;9206;50.994;4.538;2022-07-06T14:58:15;28.90;99.90
18163;DHT22;9206;50.994;4.538;2022-07-06T15:00:45;28.80;99.90
18163;DHT22;9206;50.994;4.538;2022-07-06T15:03:14;29.00;99.90
18163;DHT22;9206;50.994;4.538;2022-07-06T15:05:51;29.00;99.90
18163;DHT22;9206;50.994;4.538;2022-07-06T15:11:21;28.50;99.90
18163;DHT22;9206;50.994;4.538;2022-07-06T15:12:08;28.50;99.90
18163;DHT22;9206;50.994;4.538;2022-07-06T15:14:44;28.20;99.90
18163;DHT22;9206;50.994;4.538;2022-07-06T15:17:19;27.90;99.90
18163;DHT22;9206;50.994;4.538;2022-07-06T15:23:33;27.70;99.90
18163;DHT22;9206;50.994;4.538;2022-07-06T15:26:27;27.60;99.90
18163;DHT22;9206;50.994;4.538;2022-07-06T15:29:22;27.40;99.90
18163;DHT22;9206;50.994;4.538;2022-07-06T15:31:49;27.30;99.90
18163;DHT22;9206;50.994;4.538;2022-07-06T15:35:42;26.90;99.90
18163;DHT22;9206;50.994;4.538;2022-07-06T15:38:03;26.60;99.90
18163;DHT22;9206;50.994;4.538;2022-07-06T15:44:16;26.60;99.90
18163;DHT22;9206;50.994;4.538;2022-07-06T15:47:27;26.70;99.90
18163;DHT22;9206;50.994;4.538;2022-07-06T15:50:21;26.60;99.90
18163;DHT22;9206;50.994;4.538;2022-07-06T15:57:10;26.30;99.90
18163;DHT22;9206;50.994;4.538;2022-07-06T16:03:26;26.70;99.90
18163;DHT22;9206;50.994;4.538;2022-07-06T16:06:34;26.80;99.90
18163;DHT22;9206;50.994;4.538;2022-07-06T16:26:32;25.80;99.90
18163;DHT22;9206;50.994;4.538;2022-07-06T16:45:49;25.70;99.90
18163;DHT22;9206;50.994;4.538;2022-07-06T16:48:46;25.40;99.90
18163;DHT22;9206;50.994;4.538;2022-07-06T17:38:50;24.20;99.90
18163;DHT22;9206;50.994;4.538;2022-07-06T17:41:26;24.30;99.90
18163;DHT22;9206;50.994;4.538;2022-07-06T17:44:51;24.20;99.90
18163;DHT22;9206;50.994;4.538;2022-07-06T17:47:34;24.00;99.90
18163;DHT22;9206;50.994;4.538;2022-07-06T17:50:01;23.80;99.90
18163;DHT22;9206;50.994;4.538;2022-07-06T17:52:31;23.70;99.90
18163;DHT22;9206;50.994;4.538;2022-07-06T17:55:04;23.60;99.90
18163;DHT22;9206;50.994;4.538;2022-07-06T17:57:32;23.50;99.90
18163;DHT22;9206;50.994;4.538;2022-07-06T17:59:59;23.40;99.90
18163;DHT22;9206;50.994;4.538;2022-07-06T18:02:29;23.40;99.90
18163;DHT22;9206;50.994;4.538;2022-07-06T18:05:06;23.30;99.90
18163;DHT22;9206;50.994;4.538;2022-07-06T18:07:34;23.20;99.90
18163;DHT22;9206;50.994;4.538;2022-07-06T18:10:02;23.20;99.90
18163;DHT22;9206;50.994;4.538;2022-07-06T18:12:31;23.10;99.90
18163;DHT22;9206;50.994;4.538;2022-07-06T18:14:58;23.00;99.90
18163;DHT22;9206;50.994;4.538;2022-07-06T18:17:27;22.90;99.90
18163;DHT22;9206;50.994;4.538;2022-07-06T18:19:54;22.80;99.90
18163;DHT22;9206;50.994;4.538;2022-07-06T18:22:21;22.80;99.90
18163;DHT22;9206;50.994;4.538;2022-07-06T18:24:50;22.70;99.90
18163;DHT22;9206;50.994;4.538;2022-07-06T18:27:17;22.60;99.90
18163;DHT22;9206;50.994;4.538;2022-07-06T18:29:44;22.50;99.90
18163;DHT22;9206;50.994;4.538;2022-07-06T18:32:15;22.50;99.90
18163;DHT22;9206;50.994;4.538;2022-07-06T18:34:42;22.40;99.90
18163;DHT22;9206;50.994;4.538;2022-07-06T18:37:15;22.30;99.90
18163;DHT22;9206;50.994;4.538;2022-07-06T18:39:42;22.30;99.90
18163;DHT22;9206;50.994;4.538;2022-07-06T18:42:11;22.20;99.90
18163;DHT22;9206;50.994;4.538;2022-07-06T18:44:38;22.20;99.90
18163;DHT22;9206;50.994;4.538;2022-07-06T18:47:06;22.10;99.90
18163;DHT22;9206;50.994;4.538;2022-07-06T18:49:33;22.00;99.90
18163;DHT22;9206;50.994;4.538;2022-07-06T18:52:00;22.00;99.90
18163;DHT22;9206;50.994;4.538;2022-07-06T18:54:28;21.90;99.90
18163;DHT22;9206;50.994;4.538;2022-07-06T18:56:56;21.80;99.90
18163;DHT22;9206;50.994;4.538;2022-07-06T18:59:25;21.80;99.90
18163;DHT22;9206;50.994;4.538;2022-07-06T19:01:52;21.70;99.90
18163;DHT22;9206;50.994;4.538;2022-07-06T19:04:20;21.70;99.90
18163;DHT22;9206;50.994;4.538;2022-07-06T19:06:47;21.70;99.90
18163;DHT22;9206;50.994;4.538;2022-07-06T19:09:17;21.60;99.90
18163;DHT22;9206;50.994;4.538;2022-07-06T19:11:43;21.60;99.90
18163;DHT22;9206;50.994;4.538;2022-07-06T19:14:10;21.60;99.90
18163;DHT22;9206;50.994;4.538;2022-07-06T19:16:39;21.50;99.90
18163;DHT22;9206;50.994;4.538;2022-07-06T19:19:06;21.50;99.90
18163;DHT22;9206;50.994;4.538;2022-07-06T19:21:33;21.40;99.90
18163;DHT22;9206;50.994;4.538;2022-07-06T19:24:01;21.40;99.90
18163;DHT22;9206;50.994;4.538;2022-07-06T19:26:29;21.40;99.90
18163;DHT22;9206;50.994;4.538;2022-07-06T19:28:57;21.30;99.90
18163;DHT22;9206;50.994;4.538;2022-07-06T19:31:30;21.30;99.90
18163;DHT22;9206;50.994;4.538;2022-07-06T19:33:59;21.20;99.90
18163;DHT22;9206;50.994;4.538;2022-07-06T19:36:26;21.20;99.90
18163;DHT22;9206;50.994;4.538;2022-07-06T19:38:53;21.20;99.90
18163;DHT22;9206;50.994;4.538;2022-07-06T19:41:20;21.20;99.90
18163;DHT22;9206;50.994;4.538;2022-07-06T19:43:48;21.20;99.90
18163;DHT22;9206;50.994;4.538;2022-07-06T19:46:15;21.10;99.90
18163;DHT22;9206;50.994;4.538;2022-07-06T19:48:42;21.10;99.90
18163;DHT22;9206;50.994;4.538;2022-07-06T19:51:11;21.10;99.90
18163;DHT22;9206;50.994;4.538;2022-07-06T19:53:37;21.00;99.90
18163;DHT22;9206;50.994;4.538;2022-07-06T19:56:05;21.00;99.90
18163;DHT22;9206;50.994;4.538;2022-07-06T19:58:32;21.00;99.90
18163;DHT22;9206;50.994;4.538;2022-07-06T20:00:59;20.90;99.90
18163;DHT22;9206;50.994;4.538;2022-07-06T20:03:26;20.90;99.90
18163;DHT22;9206;50.994;4.538;2022-07-06T20:05:53;20.80;99.90
18163;DHT22;9206;50.994;4.538;2022-07-06T20:08:22;20.80;99.90
18163;DHT22;9206;50.994;4.538;2022-07-06T20:10:49;20.80;99.90
18163;DHT22;9206;50.994;4.538;2022-07-06T20:13:16;20.70;99.90
18163;DHT22;9206;50.994;4.538;2022-07-06T20:15:44;20.70;99.90
18163;DHT22;9206;50.994;4.538;2022-07-06T20:18:11;20.70;99.90
18163;DHT22;9206;50.994;4.538;2022-07-06T20:20:38;20.60;99.90
18163;DHT22;9206;50.994;4.538;2022-07-06T20:23:05;20.60;99.90
18163;DHT22;9206;50.994;4.538;2022-07-06T20:25:34;20.60;99.90
18163;DHT22;9206;50.994;4.538;2022-07-06T20:28:01;20.50;99.90
18163;DHT22;9206;50.994;4.538;2022-07-06T20:30:28;20.50;99.90
18163;DHT22;9206;50.994;4.538;2022-07-06T20:32:56;20.50;99.90
18163;DHT22;9206;50.994;4.538;2022-07-06T20:35:24;20.50;99.90
18163;DHT22;9206;50.994;4.538;2022-07-06T20:37:52;20.40;99.90
18163;DHT22;9206;50.994;4.538;2022-07-06T20:40:19;20.40;99.90
18163;DHT22;9206;50.994;4.538;2022-07-06T20:42:47;20.40;99.90
18163;DHT22;9206;50.994;4.538;2022-07-06T20:45:17;20.40;99.90
18163;DHT22;9206;50.994;4.538;2022-07-06T20:47:44;20.40;99.90
18163;DHT22;9206;50.994;4.538;2022-07-06T20:50:11;20.30;99.90
18163;DHT22;9206;50.994;4.538;2022-07-06T20:52:39;20.30;99.90
18163;DHT22;9206;50.994;4.538;2022-07-06T20:55:07;20.20;99.90
18163;DHT22;9206;50.994;4.538;2022-07-06T20:57:34;20.20;99.90
18163;DHT22;9206;50.994;4.538;2022-07-06T21:00:04;20.20;99.90
18163;DHT22;9206;50.994;4.538;2022-07-06T21:02:32;20.10;99.90
18163;DHT22;9206;50.994;4.538;2022-07-06T21:04:59;20.10;99.90
18163;DHT22;9206;50.994;4.538;2022-07-06T21:07:26;20.10;99.90
18163;DHT22;9206;50.994;4.538;2022-07-06T21:09:53;20.10;99.90
18163;DHT22;9206;50.994;4.538;2022-07-06T21:12:20;20.10;99.90
18163;DHT22;9206;50.994;4.538;2022-07-06T21:14:47;20.10;99.90
18163;DHT22;9206;50.994;4.538;2022-07-06T21:17:16;20.00;99.90
18163;DHT22;9206;50.994;4.538;2022-07-06T21:19:44;20.00;99.90
18163;DHT22;9206;50.994;4.538;2022-07-06T21:22:11;19.90;99.90
18163;DHT22;9206;50.994;4.538;2022-07-06T21:24:38;19.90;99.90
18163;DHT22;9206;50.994;4.538;2022-07-06T21:27:05;19.90;99.90
18163;DHT22;9206;50.994;4.538;2022-07-06T21:29:33;19.90;99.90
18163;DHT22;9206;50.994;4.538;2022-07-06T21:32:07;19.90;99.90
18163;DHT22;9206;50.994;4.538;2022-07-06T21:34:36;19.80;99.90
18163;DHT22;9206;50.994;4.538;2022-07-06T21:37:04;19.80;99.90
18163;DHT22;9206;50.994;4.538;2022-07-06T21:39:32;19.80;99.90
18163;DHT22;9206;50.994;4.538;2022-07-06T21:42:02;19.80;99.90
18163;DHT22;9206;50.994;4.538;2022-07-06T21:44:29;19.70;99.90
18163;DHT22;9206;50.994;4.538;2022-07-06T21:46:56;19.70;99.90
18163;DHT22;9206;50.994;4.538;2022-07-06T21:49:23;19.60;99.90
18163;DHT22;9206;50.994;4.538;2022-07-06T21:51:52;19.60;99.90
18163;DHT22;9206;50.994;4.538;2022-07-06T21:54:19;19.60;99.90
18163;DHT22;9206;50.994;4.538;2022-07-06T21:56:46;19.50;99.90
18163;DHT22;9206;50.994;4.538;2022-07-06T21:59:13;19.40;99.90
18163;DHT22;9206;50.994;4.538;2022-07-06T22:01:42;19.40;99.90
18163;DHT22;9206;50.994;4.538;2022-07-06T22:04:09;19.30;99.90
18163;DHT22;9206;50.994;4.538;2022-07-06T22:06:36;19.20;99.90
18163;DHT22;9206;50.994;4.538;2022-07-06T22:09:05;19.10;99.90
18163;DHT22;9206;50.994;4.538;2022-07-06T22:11:32;19.00;99.90